createdAt,value
2023-05-19T00:01:20.889Z,4.18
2023-05-19T00:04:07.042Z,3.65
2023-05-19T00:06:34.433Z,4.07
2023-05-19T00:09:09.840Z,3.73
2023-05-19T00:11:38.160Z,3.80
2023-05-19T00:14:07.962Z,4.30
2023-05-19T00:16:36.285Z,4.07
2023-05-19T00:19:05.270Z,4.13
2023-05-19T00:21:32.858Z,4.13
2023-05-19T00:24:00.229Z,3.80
2023-05-19T00:26:27.681Z,3.97
2023-05-19T00:28:59.975Z,4.28
2023-05-19T00:31:27.436Z,4.82
2023-05-19T00:33:55.253Z,4.00
2023-05-19T00:36:22.609Z,4.13
2023-05-19T00:38:51.088Z,4.00
2023-05-19T00:41:18.809Z,4.18
2023-05-19T00:43:46.244Z,4.22
2023-05-19T00:46:13.194Z,4.20
2023-05-19T00:48:40.190Z,3.90
2023-05-19T00:51:07.272Z,3.92
2023-05-19T00:53:35.476Z,4.63
2023-05-19T00:56:03.524Z,4.40
2023-05-19T00:58:32.594Z,4.10
2023-05-19T01:01:03.885Z,4.40
2023-05-19T01:03:32.904Z,4.43
2023-05-19T01:06:04.871Z,3.92
2023-05-19T01:08:37.212Z,4.10
2023-05-19T01:11:05.575Z,4.40
2023-05-19T01:13:33.594Z,4.40
2023-05-19T01:16:22.506Z,4.30
2023-05-19T01:19:39.682Z,4.03
2023-05-19T01:22:07.444Z,4.20
2023-05-19T01:25:07.136Z,3.90
2023-05-19T01:27:57.184Z,4.32
2023-05-19T01:30:30.256Z,4.50
2023-05-19T01:33:01.035Z,4.22
2023-05-19T01:35:28.770Z,4.32
2023-05-19T01:38:00.647Z,4.20
2023-05-19T01:40:29.018Z,4.40
2023-05-19T01:42:59.601Z,4.00
2023-05-19T01:45:29.088Z,4.30
2023-05-19T01:47:59.138Z,4.38
2023-05-19T01:50:26.579Z,4.17
2023-05-19T01:52:54.013Z,4.55
2023-05-19T01:55:23.328Z,5.22
2023-05-19T01:57:50.652Z,4.47
2023-05-19T02:00:34.711Z,4.65
2023-05-19T02:03:29.282Z,4.73
2023-05-19T02:06:16.006Z,4.60
2023-05-19T02:09:04.262Z,4.38
2023-05-19T02:11:42.068Z,4.95
2023-05-19T02:14:16.949Z,4.55
2023-05-19T02:16:48.704Z,4.83
2023-05-19T02:19:32.069Z,4.60
2023-05-19T02:21:59.531Z,4.70
2023-05-19T02:24:26.622Z,4.32
2023-05-19T02:26:54.274Z,4.93
2023-05-19T02:29:21.791Z,4.90
2023-05-19T02:31:51.123Z,4.22
2023-05-19T02:34:19.202Z,4.53
2023-05-19T02:36:49.691Z,3.95
2023-05-19T02:39:17.140Z,5.30
2023-05-19T02:41:44.391Z,4.40
2023-05-19T02:44:12.917Z,4.28
2023-05-19T02:46:39.777Z,4.40
2023-05-19T02:49:07.310Z,4.28
2023-05-19T02:51:34.591Z,5.35
2023-05-19T02:54:01.938Z,4.80
2023-05-19T02:56:29.287Z,4.80
2023-05-19T02:58:56.782Z,4.22
2023-05-19T03:01:24.029Z,5.00
2023-05-19T03:03:51.458Z,5.20
2023-05-19T03:06:18.410Z,5.10
2023-05-19T03:08:46.014Z,5.28
2023-05-19T03:11:13.341Z,4.78
2023-05-19T03:13:40.627Z,5.57
2023-05-19T03:16:08.355Z,5.07
2023-05-19T03:18:36.076Z,4.67
2023-05-19T03:21:03.399Z,5.68
2023-05-19T03:23:30.673Z,4.55
2023-05-19T03:25:58.369Z,5.13
2023-05-19T03:28:27.389Z,5.80
2023-05-19T03:30:54.660Z,5.20
2023-05-19T03:33:25.273Z,5.30
2023-05-19T03:35:53.021Z,5.03
2023-05-19T03:38:20.844Z,5.20
2023-05-19T03:40:56.661Z,5.03
2023-05-19T03:43:24.055Z,5.67
2023-05-19T03:45:58.821Z,5.95
2023-05-19T03:48:52.283Z,4.60
2023-05-19T03:51:38.315Z,4.65
2023-05-19T03:54:19.039Z,4.82
2023-05-19T03:56:46.557Z,5.03
2023-05-19T03:59:13.848Z,5.50
2023-05-19T04:01:41.199Z,5.75
2023-05-19T04:04:08.544Z,4.90
2023-05-19T04:06:36.253Z,5.82
2023-05-19T04:09:05.171Z,4.53
2023-05-19T04:11:32.481Z,5.18
2023-05-19T04:13:59.774Z,5.03
2023-05-19T04:16:27.070Z,4.95
2023-05-19T04:18:54.390Z,5.35
2023-05-19T04:21:22.396Z,5.50
2023-05-19T04:23:49.845Z,5.35
2023-05-19T04:26:19.317Z,5.32
2023-05-19T04:28:46.690Z,5.65
2023-05-19T04:31:14.234Z,6.18
2023-05-19T04:33:42.895Z,6.13
2023-05-19T04:36:13.790Z,5.95
2023-05-19T04:38:43.476Z,6.50
2023-05-19T04:41:12.072Z,5.60
2023-05-19T04:43:41.948Z,5.68
2023-05-19T04:46:13.231Z,5.33
2023-05-19T04:48:42.662Z,6.40
2023-05-19T04:51:09.763Z,5.65
2023-05-19T04:53:37.140Z,6.10
2023-05-19T04:56:07.885Z,5.57
2023-05-19T04:58:35.063Z,6.00
2023-05-19T05:01:03.836Z,6.43
2023-05-19T05:03:33.202Z,6.40
2023-05-19T05:06:01.272Z,5.78
2023-05-19T05:08:30.209Z,6.50
2023-05-19T05:10:57.459Z,6.43
2023-05-19T05:13:25.112Z,5.55
2023-05-19T05:15:54.146Z,5.88
2023-05-19T05:18:21.826Z,6.20
2023-05-19T05:20:49.032Z,5.88
2023-05-19T05:23:16.752Z,5.63
2023-05-19T05:25:47.416Z,6.05
2023-05-19T05:28:15.968Z,6.25
2023-05-19T05:30:44.919Z,5.80
2023-05-19T05:33:13.750Z,5.68
2023-05-19T05:35:42.046Z,5.70
2023-05-19T05:38:11.657Z,6.63
2023-05-19T05:40:39.699Z,6.57
2023-05-19T05:43:08.617Z,6.20
2023-05-19T05:45:41.890Z,6.22
2023-05-19T05:48:09.352Z,7.07
2023-05-19T05:50:36.625Z,7.10
2023-05-19T05:53:04.424Z,5.75
2023-05-19T05:55:33.541Z,6.63
2023-05-19T05:58:02.435Z,4.97
2023-05-19T06:00:30.332Z,6.60
2023-05-19T06:02:59.275Z,6.60
2023-05-19T06:05:27.084Z,6.03
2023-05-19T06:07:55.110Z,6.30
2023-05-19T06:10:26.197Z,5.55
2023-05-19T06:12:54.799Z,6.30
2023-05-19T06:15:22.680Z,6.45
2023-05-19T06:18:18.867Z,5.13
2023-05-19T06:20:48.578Z,6.10
2023-05-19T06:23:15.948Z,7.00
2023-05-19T06:25:43.202Z,6.00
2023-05-19T06:28:11.619Z,5.88
2023-05-19T06:30:38.961Z,6.05
2023-05-19T06:33:35.355Z,6.00
2023-05-19T06:36:02.751Z,5.70
2023-05-19T06:38:31.512Z,5.90
2023-05-19T06:40:58.583Z,5.20
2023-05-19T06:43:25.966Z,5.90
2023-05-19T06:45:57.983Z,5.63
2023-05-19T06:48:26.415Z,5.38
2023-05-19T06:50:54.066Z,5.27
2023-05-19T06:53:21.383Z,4.97
2023-05-19T06:55:59.504Z,5.63
2023-05-19T06:58:30.529Z,5.28
2023-05-19T07:00:59.342Z,5.57
2023-05-19T07:03:31.285Z,4.87
2023-05-19T07:05:59.702Z,5.10
2023-05-19T07:08:27.767Z,5.15
2023-05-19T07:10:57.887Z,5.15
2023-05-19T07:13:27.324Z,4.82
2023-05-19T07:15:58.260Z,4.80
2023-05-19T07:18:31.782Z,4.55
2023-05-19T07:20:58.962Z,4.63
2023-05-19T07:23:28.207Z,5.03
2023-05-19T07:25:56.500Z,4.68
2023-05-19T07:28:23.882Z,4.50
2023-05-19T07:30:51.961Z,4.97
2023-05-19T07:33:19.304Z,4.90
2023-05-19T07:35:46.676Z,5.00
2023-05-19T07:38:13.623Z,4.65
2023-05-19T07:40:40.992Z,4.20
2023-05-19T07:43:08.363Z,4.13
2023-05-19T07:45:35.907Z,4.47
2023-05-19T07:48:03.389Z,4.72
2023-05-19T07:50:30.902Z,4.28
2023-05-19T07:52:58.373Z,4.20
2023-05-19T07:55:26.363Z,3.85
2023-05-19T07:57:53.659Z,3.90
2023-05-19T08:00:20.902Z,5.55
2023-05-19T08:02:48.502Z,4.15
2023-05-19T08:05:15.876Z,4.13
2023-05-19T08:07:43.171Z,4.15
2023-05-19T08:10:10.610Z,4.25
2023-05-19T08:12:37.509Z,3.95
2023-05-19T08:15:05.033Z,4.47
2023-05-19T08:17:32.370Z,4.80
2023-05-19T08:20:00.379Z,4.05
2023-05-19T08:22:27.272Z,4.00
2023-05-19T08:24:54.523Z,4.30
2023-05-19T08:27:22.156Z,4.28
2023-05-19T08:29:49.424Z,4.30
2023-05-19T08:32:17.483Z,3.75
2023-05-19T08:34:44.888Z,4.50
2023-05-19T08:37:12.330Z,3.85
2023-05-19T08:39:39.229Z,3.63
2023-05-19T08:42:10.063Z,3.90
2023-05-19T08:44:39.959Z,4.25
2023-05-19T08:47:12.676Z,4.13
2023-05-19T08:49:53.067Z,3.30
2023-05-19T08:52:27.547Z,3.50
2023-05-19T08:55:13.055Z,3.27
2023-05-19T08:57:41.536Z,3.42
2023-05-19T09:00:10.931Z,3.03
2023-05-19T09:02:50.257Z,3.13
2023-05-19T09:05:25.985Z,3.20
2023-05-19T09:07:53.287Z,3.07
2023-05-19T09:10:20.657Z,2.67
2023-05-19T09:12:48.828Z,3.00
2023-05-19T09:15:19.331Z,3.22
2023-05-19T09:17:49.003Z,2.88
2023-05-19T09:20:17.533Z,2.70
2023-05-19T09:22:47.271Z,2.80
2023-05-19T09:25:22.904Z,3.20
2023-05-19T09:27:50.800Z,3.20
2023-05-19T09:30:18.212Z,2.75
2023-05-19T09:32:47.151Z,3.20
2023-05-19T09:35:17.212Z,2.63
2023-05-19T09:37:44.533Z,2.50
2023-05-19T09:40:14.452Z,2.83
2023-05-19T09:42:43.101Z,3.05
2023-05-19T09:45:10.662Z,3.17
2023-05-19T09:47:39.488Z,3.00
2023-05-19T09:50:08.865Z,3.20
2023-05-19T09:52:37.242Z,2.95
2023-05-19T09:55:06.371Z,3.13
2023-05-19T09:57:37.685Z,2.93
2023-05-19T10:00:15.432Z,2.85
2023-05-19T10:02:44.286Z,3.00
2023-05-19T10:05:17.208Z,3.10
2023-05-19T10:07:45.814Z,3.28
2023-05-19T10:10:14.110Z,3.37
2023-05-19T10:12:42.316Z,3.08
2023-05-19T10:15:11.440Z,3.38
2023-05-19T10:17:40.727Z,2.92
2023-05-19T10:20:17.815Z,3.22
2023-05-19T10:22:48.755Z,3.60
2023-05-19T10:25:20.029Z,3.63
2023-05-19T10:28:01.826Z,3.72
2023-05-19T10:30:31.217Z,3.38
2023-05-19T10:33:01.015Z,3.42
2023-05-19T10:35:54.157Z,3.30
2023-05-19T10:38:37.359Z,3.30
2023-05-19T10:41:23.150Z,3.95
2023-05-19T10:44:02.609Z,3.63
2023-05-19T10:46:30.636Z,3.25
2023-05-19T10:48:57.641Z,3.63
2023-05-19T10:51:34.488Z,3.72
2023-05-19T10:54:15.944Z,3.83
2023-05-19T10:56:47.488Z,3.33
2023-05-19T10:59:35.586Z,3.13
2023-05-19T11:02:06.576Z,3.50
2023-05-19T11:04:53.580Z,3.35
2023-05-19T11:07:22.396Z,3.45
2023-05-19T11:09:51.735Z,3.67
2023-05-19T11:12:25.670Z,3.70
2023-05-19T11:14:54.058Z,3.50
2023-05-19T11:17:23.840Z,3.58
2023-05-19T11:19:59.159Z,3.83
2023-05-19T11:22:27.444Z,3.88
2023-05-19T11:24:57.630Z,3.75
2023-05-19T11:27:34.298Z,3.97
2023-05-19T11:30:15.068Z,3.60
2023-05-19T11:32:43.960Z,3.60
2023-05-19T11:35:11.413Z,3.60
2023-05-19T11:37:40.506Z,3.55
2023-05-19T11:40:08.334Z,3.90
2023-05-19T11:42:36.930Z,4.65
2023-05-19T11:45:04.797Z,3.10
2023-05-19T11:47:47.070Z,3.33
2023-05-19T11:50:22.586Z,3.10
2023-05-19T11:52:51.615Z,3.23
2023-05-19T11:55:22.023Z,3.00
2023-05-19T12:00:39.220Z,2.75
2023-05-19T12:03:07.314Z,3.33
2023-05-19T12:05:41.992Z,2.80
2023-05-19T12:08:10.699Z,3.30
2023-05-19T12:10:38.802Z,3.15
2023-05-19T12:13:08.907Z,2.80
2023-05-19T12:15:36.689Z,2.42
2023-05-19T12:18:03.843Z,3.10
2023-05-19T12:20:36.008Z,3.08
2023-05-19T12:23:03.858Z,2.92
2023-05-19T12:25:31.940Z,3.47
2023-05-19T12:28:05.508Z,3.13
2023-05-19T12:30:33.930Z,2.70
2023-05-19T12:33:02.723Z,2.85
2023-05-19T12:35:33.465Z,3.10
2023-05-19T12:38:07.009Z,2.70
2023-05-19T12:40:35.434Z,3.20
2023-05-19T12:43:03.434Z,3.10
2023-05-19T12:45:38.325Z,3.03
2023-05-19T12:48:11.073Z,3.20
2023-05-19T12:50:38.579Z,2.80
2023-05-19T12:53:09.140Z,3.20
2023-05-19T12:55:44.724Z,2.80
2023-05-19T12:58:12.744Z,3.13
2023-05-19T13:00:50.599Z,3.08
2023-05-19T13:03:19.634Z,2.75
2023-05-19T13:05:48.727Z,3.00
2023-05-19T13:08:24.004Z,3.13
2023-05-19T13:10:51.342Z,3.10
2023-05-19T13:13:19.324Z,3.47
2023-05-19T13:15:49.063Z,3.45
2023-05-19T13:18:16.362Z,3.53
2023-05-19T13:20:44.588Z,3.17
2023-05-19T13:23:12.402Z,3.42
2023-05-19T13:25:40.276Z,3.95
2023-05-19T13:28:07.992Z,3.35
2023-05-19T13:30:36.813Z,3.53
2023-05-19T13:33:04.350Z,2.90
2023-05-19T13:35:36.919Z,3.30
2023-05-19T13:38:11.580Z,3.53
2023-05-19T13:40:39.889Z,3.25
2023-05-19T13:43:08.480Z,3.58
2023-05-19T13:45:35.502Z,3.37
2023-05-19T13:48:02.713Z,4.10
2023-05-19T13:50:29.712Z,3.80
2023-05-19T13:52:56.739Z,3.75
2023-05-19T13:55:23.673Z,3.72
2023-05-19T13:57:50.951Z,3.10
2023-05-19T14:00:18.920Z,3.60
2023-05-19T14:02:46.281Z,3.78
2023-05-19T14:05:13.556Z,3.45
2023-05-19T14:07:40.501Z,3.50
2023-05-19T14:10:08.056Z,3.30
2023-05-19T14:12:49.537Z,3.60
2023-05-19T14:15:22.986Z,3.13
2023-05-19T14:17:49.995Z,2.97
2023-05-19T14:20:16.994Z,3.47
2023-05-19T14:22:43.833Z,3.30
2023-05-19T14:25:11.010Z,3.85
2023-05-19T14:27:39.753Z,3.25
2023-05-19T14:30:07.858Z,3.75
2023-05-19T14:32:34.856Z,3.40
2023-05-19T14:35:02.062Z,3.70
2023-05-19T14:37:29.095Z,3.47
2023-05-19T14:39:57.451Z,3.40
2023-05-19T14:42:24.984Z,3.33
2023-05-19T14:44:51.909Z,3.05
2023-05-19T14:47:18.781Z,3.20
2023-05-19T14:49:45.841Z,3.40
2023-05-19T14:52:12.802Z,6.95
2023-05-19T14:54:39.656Z,2.55
2023-05-19T14:57:08.125Z,9.98
2023-05-19T14:59:38.586Z,4.33
2023-05-19T15:02:06.083Z,3.47
2023-05-19T15:04:33.079Z,3.15
2023-05-19T15:09:29.794Z,4.25
2023-05-19T15:11:56.627Z,3.57
2023-05-19T15:14:24.221Z,3.60
2023-05-19T15:16:51.079Z,3.15
2023-05-19T15:19:18.371Z,2.90
2023-05-19T15:21:45.837Z,3.05
2023-05-19T15:24:12.659Z,2.80
2023-05-19T15:26:39.662Z,3.38
2023-05-19T15:29:06.533Z,3.45
2023-05-19T15:31:35.751Z,3.10
2023-05-19T15:34:04.294Z,3.10
2023-05-19T15:36:31.541Z,3.43
2023-05-19T15:38:58.371Z,3.90
2023-05-19T15:41:25.694Z,3.88
2023-05-19T15:43:53.536Z,3.28
2023-05-19T15:46:20.770Z,3.22
2023-05-19T15:48:47.734Z,3.17
2023-05-19T15:51:14.799Z,3.45
2023-05-19T15:53:41.676Z,3.60
2023-05-19T15:56:08.560Z,3.30
2023-05-19T15:58:35.877Z,3.30
2023-05-19T16:01:03.194Z,2.83
2023-05-19T16:03:30.230Z,3.30
2023-05-19T16:05:57.718Z,2.80
2023-05-19T16:08:25.722Z,4.20
2023-05-19T16:10:53.748Z,4.57
2023-05-19T16:13:20.951Z,2.90
2023-05-19T16:15:48.621Z,3.22
2023-05-19T16:18:16.209Z,3.70
2023-05-19T16:20:44.072Z,2.85
2023-05-19T16:23:11.102Z,3.35
2023-05-19T16:25:37.994Z,3.33
2023-05-19T16:28:05.364Z,2.72
2023-05-19T16:30:32.722Z,3.30
2023-05-19T16:32:59.973Z,3.35
2023-05-19T16:35:29.951Z,5.03
2023-05-19T16:37:56.919Z,2.90
2023-05-19T16:40:24.084Z,3.50
2023-05-19T16:42:52.967Z,3.58
2023-05-19T16:45:19.895Z,3.83
2023-05-19T16:47:47.233Z,3.90
2023-05-19T16:50:14.117Z,3.90
2023-05-19T16:52:41.065Z,3.50
2023-05-19T16:55:08.358Z,3.38
2023-05-19T16:57:35.408Z,5.85
2023-05-19T17:00:03.531Z,4.93
2023-05-19T17:02:30.589Z,4.13
2023-05-19T17:04:57.585Z,3.60
2023-05-19T17:07:24.471Z,3.17
2023-05-19T17:09:52.158Z,5.70
2023-05-19T17:12:20.479Z,3.33
2023-05-19T17:14:47.372Z,3.60
2023-05-19T17:17:14.513Z,3.20
2023-05-19T17:19:41.490Z,3.50
2023-05-19T17:22:08.405Z,4.03
2023-05-19T17:24:35.794Z,3.70
2023-05-19T17:27:02.683Z,7.50
2023-05-19T17:29:29.637Z,7.47
2023-05-19T17:31:56.588Z,10.57
2023-05-19T17:34:24.112Z,8.35
2023-05-19T17:36:51.195Z,5.47
2023-05-19T17:39:20.284Z,3.87
2023-05-19T17:41:47.150Z,3.78
2023-05-19T17:44:14.843Z,3.58
2023-05-19T17:46:41.853Z,3.45
2023-05-19T17:49:10.554Z,3.60
2023-05-19T17:51:37.963Z,3.30
2023-05-19T17:54:05.453Z,4.03
2023-05-19T17:56:39.683Z,3.90
2023-05-19T17:59:07.098Z,7.30
2023-05-19T18:01:34.549Z,4.57
2023-05-19T18:04:02.418Z,3.47
2023-05-19T18:06:30.332Z,4.38
2023-05-19T18:09:00.919Z,3.95
2023-05-19T18:11:28.341Z,4.85
2023-05-19T18:13:55.744Z,4.93
2023-05-19T18:16:22.731Z,5.80
2023-05-19T18:18:50.560Z,5.65
2023-05-19T18:21:18.172Z,4.50
2023-05-19T18:23:46.267Z,5.70
2023-05-19T18:26:13.593Z,7.03
2023-05-19T18:28:41.515Z,6.27
2023-05-19T18:31:09.350Z,3.95
2023-05-19T18:33:36.474Z,4.30
2023-05-19T18:36:03.703Z,4.22
2023-05-19T18:38:30.554Z,3.90
2023-05-19T18:40:58.162Z,4.73
2023-05-19T18:43:25.482Z,4.45
2023-05-19T18:45:52.493Z,5.35
2023-05-19T18:48:21.148Z,4.10
2023-05-19T18:50:48.350Z,4.18
2023-05-19T18:53:15.431Z,4.57
2023-05-19T18:55:42.925Z,4.00
2023-05-19T18:58:09.960Z,3.78
2023-05-19T19:00:37.374Z,3.45
2023-05-19T19:03:05.143Z,3.83
2023-05-19T19:05:32.621Z,3.77
2023-05-19T19:07:59.949Z,3.28
2023-05-19T19:10:27.750Z,3.25
2023-05-19T19:12:55.291Z,4.03
2023-05-19T19:15:22.553Z,3.67
2023-05-19T19:17:49.507Z,4.40
2023-05-19T19:20:16.852Z,4.07
2023-05-19T19:22:44.284Z,3.78
2023-05-19T19:25:11.735Z,3.15
2023-05-19T19:27:38.999Z,3.67
2023-05-19T19:30:06.675Z,3.40
2023-05-19T19:32:33.656Z,3.00
2023-05-19T19:35:00.705Z,2.95
2023-05-19T19:37:28.248Z,2.75
2023-05-19T19:39:55.603Z,3.00
2023-05-19T19:42:22.648Z,2.90
2023-05-19T19:44:49.951Z,2.80
2023-05-19T19:47:17.264Z,3.03
2023-05-19T19:49:45.745Z,3.10
2023-05-19T19:52:13.012Z,3.22
2023-05-19T19:54:40.404Z,3.83
2023-05-19T19:57:07.674Z,4.20
2023-05-19T19:59:34.826Z,3.90
2023-05-19T20:02:02.547Z,3.10
2023-05-19T20:04:29.945Z,3.60
2023-05-19T20:06:56.897Z,5.00
2023-05-19T20:09:24.293Z,6.43
2023-05-19T20:11:51.626Z,5.20
2023-05-19T20:14:19.011Z,4.38
2023-05-19T20:16:46.692Z,4.20
2023-05-19T20:19:13.734Z,3.23
2023-05-19T20:21:41.065Z,4.30
2023-05-19T20:24:08.579Z,3.83
2023-05-19T20:26:36.293Z,3.45
2023-05-19T20:29:03.194Z,3.10
2023-05-19T20:31:30.173Z,2.80
2023-05-19T20:33:58.691Z,2.88
2023-05-19T20:36:26.737Z,3.20
2023-05-19T20:38:54.162Z,2.80
2023-05-19T20:41:22.490Z,3.10
2023-05-19T20:43:49.410Z,3.00
2023-05-19T20:46:17.174Z,2.63
2023-05-19T20:48:44.602Z,3.03
2023-05-19T20:51:11.793Z,3.40
2023-05-19T20:53:39.114Z,3.60
2023-05-19T20:56:07.301Z,4.00
2023-05-19T20:58:34.574Z,3.65
2023-05-19T21:01:01.530Z,3.90
2023-05-19T21:03:30.352Z,4.80
2023-05-19T21:05:57.666Z,4.63
2023-05-19T21:08:25.507Z,4.40
2023-05-19T21:10:52.866Z,5.40
2023-05-19T21:13:20.038Z,7.57
2023-05-19T21:15:47.192Z,4.30
2023-05-19T21:18:14.506Z,5.10
2023-05-19T21:20:41.394Z,7.07
2023-05-19T21:23:08.687Z,4.50
2023-05-19T21:25:36.108Z,4.55
2023-05-19T21:28:03.331Z,4.72
2023-05-19T21:30:30.317Z,4.72
2023-05-19T21:32:57.987Z,4.23
2023-05-19T21:35:25.400Z,4.03
2023-05-19T21:37:52.816Z,4.55
2023-05-19T21:40:20.181Z,4.40
2023-05-19T21:42:47.456Z,5.47
2023-05-19T21:45:14.731Z,5.20
2023-05-19T21:47:41.634Z,5.32
2023-05-19T21:50:09.315Z,5.13
2023-05-19T21:52:38.207Z,5.38
2023-05-19T21:55:05.779Z,4.65
2023-05-19T21:57:33.087Z,4.23
2023-05-19T22:00:00.591Z,4.50
2023-05-19T22:02:28.213Z,4.57
2023-05-19T22:04:56.160Z,4.07
2023-05-19T22:07:26.966Z,4.35
2023-05-19T22:09:54.068Z,4.43
2023-05-19T22:12:21.377Z,4.63
2023-05-19T22:14:48.689Z,5.68
2023-05-19T22:17:16.143Z,4.60
2023-05-19T22:19:43.010Z,4.50
2023-05-19T22:22:14.128Z,4.90
2023-05-19T22:24:41.689Z,4.47
2023-05-19T22:27:08.921Z,4.40
2023-05-19T22:29:38.446Z,4.28
2023-05-19T22:32:09.224Z,4.00
2023-05-19T22:34:36.595Z,4.70
2023-05-19T22:37:03.911Z,4.65
2023-05-19T22:39:30.716Z,5.00
2023-05-19T22:41:57.641Z,3.88
2023-05-19T22:44:24.529Z,4.05
2023-05-19T22:46:51.756Z,4.70
2023-05-19T22:49:18.608Z,4.97
2023-05-19T22:51:46.074Z,4.93
2023-05-19T22:54:13.114Z,4.40
2023-05-19T22:56:44.235Z,4.28
2023-05-19T22:59:12.697Z,4.13
2023-05-19T23:01:39.670Z,3.95
2023-05-19T23:04:06.607Z,3.92
2023-05-19T23:06:33.544Z,4.53
2023-05-19T23:09:05.024Z,4.05
2023-05-19T23:11:31.960Z,4.03
2023-05-19T23:13:58.954Z,3.80
2023-05-19T23:16:26.055Z,3.92
2023-05-19T23:18:53.449Z,4.32
2023-05-19T23:21:20.766Z,5.30
2023-05-19T23:23:48.069Z,4.50
2023-05-19T23:26:15.409Z,4.28
2023-05-19T23:28:42.991Z,4.70
2023-05-19T23:31:10.442Z,4.10
2023-05-19T23:33:37.766Z,3.70
2023-05-19T23:36:09.905Z,4.43
2023-05-19T23:38:37.759Z,4.38
2023-05-19T23:41:05.407Z,4.70
2023-05-19T23:43:32.858Z,6.15
2023-05-19T23:46:00.645Z,5.00
2023-05-19T23:48:31.456Z,4.00
2023-05-19T23:50:58.830Z,4.30
2023-05-19T23:53:26.520Z,3.95
2023-05-19T23:55:53.846Z,4.03
2023-05-19T23:58:23.226Z,4.90
